createdAt,value
2018-03-11T00:00:50.915Z,14.90
2018-03-11T00:02:53.565Z,15.57
2018-03-11T00:04:57.206Z,14.80
2018-03-11T00:06:59.957Z,16.33
2018-03-11T00:09:03.443Z,16.30
2018-03-11T00:11:06.211Z,18.13
2018-03-11T00:13:08.871Z,16.07
2018-03-11T00:15:11.626Z,17.53
2018-03-11T00:17:15.400Z,17.50
2018-03-11T00:19:18.031Z,17.10
2018-03-11T00:21:23.348Z,16.97
2018-03-11T00:23:26.335Z,16.97
2018-03-11T00:25:28.985Z,17.00
2018-03-11T00:27:31.813Z,17.17
2018-03-11T00:29:34.461Z,17.37
2018-03-11T00:31:37.115Z,16.67
2018-03-11T00:33:40.517Z,16.07
2018-03-11T00:35:43.943Z,17.47
2018-03-11T00:37:46.605Z,18.43
2018-03-11T00:39:49.255Z,17.30
2018-03-11T00:41:52.685Z,18.27
2018-03-11T00:43:55.340Z,19.37
2018-03-11T00:45:57.985Z,18.13
2018-03-11T00:48:01.413Z,17.93
2018-03-11T00:50:04.074Z,18.80
2018-03-11T00:52:07.510Z,17.87
2018-03-11T00:54:10.140Z,19.67
2018-03-11T00:56:13.546Z,18.17
2018-03-11T00:58:16.213Z,19.03
2018-03-11T01:00:18.866Z,18.97
2018-03-11T01:02:22.314Z,19.83
2018-03-11T01:04:25.726Z,20.10
2018-03-11T01:06:28.457Z,21.50
2018-03-11T01:08:31.134Z,21.70
2018-03-11T01:10:33.809Z,21.47
2018-03-11T01:12:36.484Z,21.30
2018-03-11T01:14:39.135Z,26.53
2018-03-11T01:16:42.543Z,23.87
2018-03-11T01:18:45.217Z,22.80
2018-03-11T01:20:47.857Z,23.27
2018-03-11T01:22:51.267Z,23.90
2018-03-11T01:24:54.694Z,25.70
2018-03-11T01:26:57.356Z,26.67
2018-03-11T01:29:00.040Z,27.30
2018-03-11T01:31:02.681Z,26.30
2018-03-11T01:33:06.097Z,26.43
2018-03-11T01:35:08.780Z,26.53
2018-03-11T01:37:11.438Z,26.77
2018-03-11T01:39:14.890Z,25.13
2018-03-11T01:41:17.534Z,26.80
2018-03-11T01:43:20.173Z,27.90
2018-03-11T01:45:23.627Z,25.90
2018-03-11T01:47:26.274Z,26.30
2018-03-11T01:49:28.931Z,26.40
2018-03-11T01:51:31.585Z,26.17
2018-03-11T01:53:35.017Z,26.67
2018-03-11T01:55:37.675Z,26.50
2018-03-11T01:57:40.305Z,27.50
2018-03-11T01:59:42.967Z,26.30
2018-03-11T02:01:45.603Z,27.67
2018-03-11T02:03:48.274Z,26.50
2018-03-11T02:05:50.935Z,26.77
2018-03-11T02:07:54.354Z,27.10
2018-03-11T02:09:57.032Z,26.70
2018-03-11T02:11:59.671Z,27.20
2018-03-11T02:14:03.093Z,25.60
2018-03-11T02:16:05.747Z,27.63
2018-03-11T02:18:09.144Z,26.60
2018-03-11T02:20:12.560Z,25.00
2018-03-11T02:22:15.245Z,26.87
2018-03-11T02:24:18.663Z,25.10
2018-03-11T02:26:21.345Z,25.63
2018-03-11T02:28:23.989Z,25.60
2018-03-11T02:30:26.637Z,27.50
2018-03-11T02:32:29.298Z,25.87
2018-03-11T02:34:32.713Z,25.50
2018-03-11T02:36:35.497Z,26.40
2018-03-11T02:38:38.161Z,27.13
2018-03-11T02:40:40.807Z,26.87
2018-03-11T02:42:44.235Z,26.77
2018-03-11T02:44:46.882Z,27.00
2018-03-11T02:46:50.311Z,25.93
2018-03-11T02:48:52.958Z,27.47
2018-03-11T02:50:56.424Z,27.03
2018-03-11T02:52:59.131Z,25.83
2018-03-11T02:55:01.790Z,26.30
2018-03-11T02:57:05.234Z,26.47
2018-03-11T02:59:07.895Z,27.17
2018-03-11T03:01:10.527Z,26.90
2018-03-11T03:03:13.184Z,26.67
2018-03-11T03:05:15.836Z,26.23
2018-03-11T03:07:18.513Z,26.23
2018-03-11T03:09:21.157Z,28.33
2018-03-11T03:11:23.812Z,26.60
2018-03-11T03:13:27.256Z,27.07
2018-03-11T03:15:29.898Z,30.30
2018-03-11T03:17:32.549Z,28.20
2018-03-11T03:19:35.975Z,26.87
2018-03-11T03:21:38.647Z,25.70
2018-03-11T03:23:41.344Z,29.10
2018-03-11T03:25:43.989Z,26.83
2018-03-11T03:27:46.665Z,27.40
2018-03-11T03:29:49.395Z,29.33
2018-03-11T03:31:52.054Z,27.70
2018-03-11T03:33:54.738Z,26.07
2018-03-11T03:35:57.400Z,28.20
2018-03-11T03:38:00.052Z,29.10
2018-03-11T03:40:02.733Z,29.00
2018-03-11T03:42:05.368Z,30.07
2018-03-11T03:44:08.803Z,30.10
2018-03-11T03:46:11.478Z,28.80
2018-03-11T03:48:14.257Z,29.00
2018-03-11T03:50:16.915Z,28.40
2018-03-11T03:52:19.688Z,29.70
2018-03-11T03:54:22.370Z,29.37
2018-03-11T03:56:25.034Z,33.27
2018-03-11T03:58:27.707Z,29.57
2018-03-11T04:00:30.348Z,27.60
2018-03-11T04:02:32.994Z,29.73
2018-03-11T04:04:35.669Z,29.40
2018-03-11T04:06:38.312Z,29.70
2018-03-11T04:08:40.960Z,30.90
2018-03-11T04:10:44.396Z,27.50
2018-03-11T04:12:47.047Z,28.53
2018-03-11T04:14:49.717Z,30.70
2018-03-11T04:16:53.123Z,28.80
2018-03-11T04:18:55.764Z,29.23
2018-03-11T04:20:59.199Z,26.13
2018-03-11T04:23:03.898Z,28.33
2018-03-11T04:25:07.361Z,26.97
2018-03-11T04:27:09.992Z,27.30
2018-03-11T04:29:12.669Z,27.90
2018-03-11T04:31:15.300Z,28.90
2018-03-11T04:33:17.957Z,28.33
2018-03-11T04:35:20.616Z,28.10
2018-03-11T04:37:23.263Z,29.13
2018-03-11T04:39:25.969Z,28.87
2018-03-11T04:41:28.615Z,27.57
2018-03-11T04:43:31.288Z,28.37
2018-03-11T04:45:33.935Z,30.13
2018-03-11T04:47:37.353Z,29.73
2018-03-11T04:49:40.061Z,26.57
2018-03-11T04:51:42.714Z,26.20
2018-03-11T04:53:45.352Z,27.13
2018-03-11T04:55:48.784Z,26.30
2018-03-11T04:57:51.433Z,25.97
2018-03-11T04:59:54.118Z,24.40
2018-03-11T05:01:56.790Z,26.10
2018-03-11T05:03:59.430Z,26.30
2018-03-11T05:06:02.878Z,24.13
2018-03-11T05:08:05.525Z,25.07
2018-03-11T05:10:08.185Z,25.30
2018-03-11T05:12:11.604Z,25.27
2018-03-11T05:14:14.245Z,27.03
2018-03-11T05:16:17.672Z,24.90
2018-03-11T05:18:20.316Z,23.67
2018-03-11T05:20:23.738Z,26.73
2018-03-11T05:22:26.399Z,25.00
2018-03-11T05:24:29.057Z,22.57
2018-03-11T05:26:32.499Z,24.70
2018-03-11T05:28:35.146Z,24.40
2018-03-11T05:30:37.785Z,26.33
2018-03-11T05:32:40.439Z,24.20
2018-03-11T05:34:43.172Z,25.63
2018-03-11T05:36:45.847Z,23.60
2018-03-11T05:38:48.472Z,24.17
2018-03-11T05:40:51.180Z,23.70
2018-03-11T05:42:54.738Z,22.93
2018-03-11T05:44:57.385Z,21.60
2018-03-11T05:47:00.811Z,23.17
2018-03-11T05:49:03.473Z,22.03
2018-03-11T05:51:06.167Z,23.43
2018-03-11T05:53:08.837Z,23.03
2018-03-11T05:55:11.463Z,23.27
2018-03-11T05:57:14.138Z,23.60
2018-03-11T05:59:16.782Z,24.40
2018-03-11T06:01:19.424Z,23.37
2018-03-11T06:03:22.098Z,23.27
2018-03-11T06:05:24.749Z,22.30
2018-03-11T06:07:27.431Z,22.63
2018-03-11T06:09:30.068Z,21.43
2018-03-11T06:11:33.458Z,22.20
2018-03-11T06:13:36.876Z,21.30
2018-03-11T06:15:39.541Z,21.83
2018-03-11T06:17:42.202Z,20.80
2018-03-11T06:19:45.637Z,21.60
2018-03-11T06:21:48.306Z,20.20
2018-03-11T06:23:50.970Z,21.37
2018-03-11T06:25:53.607Z,19.17
2018-03-11T06:27:56.258Z,20.30
2018-03-11T06:29:58.909Z,19.63
2018-03-11T06:32:01.566Z,19.33
2018-03-11T06:34:04.264Z,18.00
2018-03-11T06:36:06.907Z,19.20
2018-03-11T06:38:09.573Z,19.13
2018-03-11T06:40:13.011Z,19.10
2018-03-11T06:42:15.662Z,21.50
2018-03-11T06:44:18.361Z,19.23
2018-03-11T06:46:21.027Z,18.53
2018-03-11T06:48:23.663Z,19.90
2018-03-11T06:50:27.108Z,21.77
2018-03-11T06:52:29.763Z,16.20
2018-03-11T06:54:32.435Z,20.80
2018-03-11T06:56:35.097Z,19.50
2018-03-11T06:58:37.789Z,19.30
2018-03-11T07:00:40.537Z,18.93
2018-03-11T07:02:43.198Z,18.67
2018-03-11T07:04:46.602Z,19.70
2018-03-11T07:06:50.047Z,18.90
2018-03-11T07:08:52.710Z,18.20
2018-03-11T07:10:55.470Z,18.57
2018-03-11T07:12:58.119Z,16.73
2018-03-11T07:15:01.543Z,16.23
2018-03-11T07:17:04.989Z,18.50
2018-03-11T07:19:07.636Z,16.07
2018-03-11T07:21:10.326Z,16.40
2018-03-11T07:23:12.965Z,14.90
2018-03-11T07:25:15.628Z,18.10
2018-03-11T07:27:18.308Z,15.83
2018-03-11T07:29:20.972Z,17.53
2018-03-11T07:31:23.674Z,18.73
2018-03-11T07:33:26.325Z,17.60
2018-03-11T07:35:29.009Z,16.90
2018-03-11T07:37:31.679Z,17.07
2018-03-11T07:39:34.334Z,16.60
2018-03-11T07:41:37.991Z,19.30
2018-03-11T07:43:40.638Z,18.73
2018-03-11T07:45:43.278Z,18.57
2018-03-11T07:47:46.938Z,16.97
2018-03-11T07:49:49.587Z,17.80
2018-03-11T07:51:54.561Z,16.20
2018-03-11T07:53:57.269Z,17.20
2018-03-11T07:55:59.925Z,17.50
2018-03-11T07:58:03.372Z,16.77
2018-03-11T08:00:06.053Z,18.47
2018-03-11T08:02:08.717Z,17.70
2018-03-11T08:04:11.381Z,17.83
2018-03-11T08:06:14.074Z,18.93
2018-03-11T08:08:16.898Z,19.03
2018-03-11T08:10:19.698Z,20.17
2018-03-11T08:12:22.387Z,18.80
2018-03-11T08:14:26.057Z,18.83
2018-03-11T08:16:28.717Z,19.83
2018-03-11T08:18:32.519Z,17.60
2018-03-11T08:20:36.074Z,16.87
2018-03-11T08:22:38.732Z,17.93
2018-03-11T08:24:41.434Z,16.27
2018-03-11T08:26:44.114Z,17.03
2018-03-11T08:28:47.673Z,17.70
2018-03-11T08:30:50.670Z,17.10
2018-03-11T08:32:53.333Z,16.73
2018-03-11T08:34:56.008Z,18.13
2018-03-11T08:36:58.701Z,17.70
2018-03-11T08:39:01.363Z,16.73
2018-03-11T08:41:04.015Z,17.60
2018-03-11T08:43:06.656Z,17.60
2018-03-11T08:45:09.397Z,16.93
2018-03-11T08:47:12.050Z,16.23
2018-03-11T08:49:14.717Z,16.50
2018-03-11T08:51:17.398Z,17.10
2018-03-11T08:53:20.062Z,15.83
2018-03-11T08:55:23.503Z,15.97
2018-03-11T08:57:26.180Z,16.43
2018-03-11T08:59:28.917Z,16.17
2018-03-11T09:01:31.603Z,16.00
2018-03-11T09:03:34.279Z,15.07
2018-03-11T09:05:36.968Z,16.70
2018-03-11T09:07:39.607Z,15.80
2018-03-11T09:09:43.023Z,15.57
2018-03-11T09:11:45.687Z,15.40
2018-03-11T09:13:48.396Z,15.53
2018-03-11T09:15:51.063Z,15.20
2018-03-11T09:17:53.718Z,14.77
2018-03-11T09:19:56.374Z,15.73
2018-03-11T09:21:59.827Z,16.00
2018-03-11T09:24:02.487Z,13.80
2018-03-11T09:26:05.179Z,14.77
2018-03-11T09:28:07.836Z,14.97
2018-03-11T09:30:10.539Z,14.60
2018-03-11T09:32:13.207Z,14.80
2018-03-11T09:34:16.082Z,15.27
2018-03-11T09:36:18.803Z,15.40
2018-03-11T09:38:22.245Z,15.27
2018-03-11T09:40:24.997Z,14.30
2018-03-11T09:42:27.674Z,15.03
2018-03-11T09:44:30.342Z,15.37
2018-03-11T09:46:33.028Z,14.13
2018-03-11T09:48:35.710Z,14.83
2018-03-11T09:50:39.275Z,14.40
2018-03-11T09:52:41.947Z,13.87
2018-03-11T09:54:44.651Z,13.50
2018-03-11T09:56:47.301Z,13.70
2018-03-11T09:58:50.113Z,12.70
2018-03-11T10:00:52.758Z,12.87
2018-03-11T10:02:55.585Z,13.00
2018-03-11T10:04:58.230Z,13.37
2018-03-11T10:07:00.986Z,12.63
2018-03-11T10:09:03.772Z,13.60
2018-03-11T10:11:06.472Z,11.83
2018-03-11T10:13:09.192Z,12.50
2018-03-11T10:15:12.605Z,12.70
2018-03-11T10:17:15.377Z,11.87
2018-03-11T10:19:18.842Z,13.30
2018-03-11T10:21:21.492Z,12.37
2018-03-11T10:23:24.283Z,12.80
2018-03-11T10:25:38.768Z,13.70
2018-03-11T10:27:42.188Z,12.97
2018-03-11T10:29:44.854Z,12.30
2018-03-11T10:31:47.511Z,12.87
2018-03-11T10:33:50.961Z,11.40
2018-03-11T10:35:53.617Z,11.10
2018-03-11T10:37:56.360Z,11.87
2018-03-11T10:39:59.804Z,11.70
2018-03-11T10:42:02.464Z,11.23
2018-03-11T10:44:05.159Z,10.40
2018-03-11T10:46:08.134Z,10.80
2018-03-11T10:48:10.984Z,11.37
2018-03-11T10:50:13.678Z,9.63
2018-03-11T10:52:16.346Z,10.67
2018-03-11T10:54:19.035Z,9.50
2018-03-11T10:56:21.683Z,9.37
2018-03-11T10:58:24.340Z,8.27
2018-03-11T11:00:27.756Z,7.90
2018-03-11T11:02:36.051Z,7.57
2018-03-11T11:04:42.567Z,5.63
2018-03-11T11:06:45.251Z,5.93
2018-03-11T11:08:47.900Z,4.93
2018-03-11T11:10:50.570Z,5.10
2018-03-11T11:12:53.331Z,5.00
2018-03-11T11:14:56.042Z,4.60
2018-03-11T11:16:58.756Z,4.53
2018-03-11T11:19:02.232Z,4.40
2018-03-11T11:21:04.950Z,4.60
2018-03-11T11:23:07.613Z,4.27
2018-03-11T11:25:10.303Z,3.90
2018-03-11T11:27:12.982Z,5.30
2018-03-11T11:29:15.646Z,3.93
2018-03-11T11:31:18.348Z,3.93
2018-03-11T11:33:21.055Z,4.33
2018-03-11T11:35:24.684Z,3.87
2018-03-11T11:37:27.544Z,3.17
2018-03-11T11:39:30.966Z,3.67
2018-03-11T11:41:35.752Z,3.47
2018-03-11T11:43:38.798Z,2.70
2018-03-11T11:45:41.428Z,2.97
2018-03-11T11:47:44.866Z,1.90
2018-03-11T11:49:47.512Z,1.70
2018-03-11T11:51:50.209Z,1.93
2018-03-11T11:53:52.992Z,2.00
2018-03-11T11:55:55.650Z,1.67
2018-03-11T11:57:58.366Z,2.00
2018-03-11T12:00:01.033Z,1.60
2018-03-11T12:02:03.715Z,1.60
2018-03-11T12:04:07.286Z,1.93
2018-03-11T12:06:10.026Z,1.77
2018-03-11T12:08:13.474Z,1.57
2018-03-11T12:10:16.155Z,1.30
2018-03-11T12:12:20.773Z,1.80
2018-03-11T12:14:23.447Z,1.60
2018-03-11T12:16:26.979Z,1.97
2018-03-11T12:18:30.514Z,2.23
2018-03-11T12:20:33.195Z,2.20
2018-03-11T12:22:35.881Z,1.47
2018-03-11T12:24:38.542Z,1.60
2018-03-11T12:26:41.184Z,1.47
2018-03-11T12:28:44.619Z,1.60
2018-03-11T12:30:47.381Z,1.30
2018-03-11T12:32:50.017Z,1.40
2018-03-11T12:34:53.542Z,1.33
2018-03-11T12:36:56.183Z,1.53
2018-03-11T12:38:59.619Z,1.60
2018-03-11T12:41:03.200Z,1.40
2018-03-11T12:43:06.610Z,1.97
2018-03-11T12:45:09.284Z,2.27
2018-03-11T12:47:12.008Z,1.40
2018-03-11T12:49:14.653Z,1.40
2018-03-11T12:51:17.344Z,1.90
2018-03-11T12:53:19.999Z,1.67
2018-03-11T12:55:22.777Z,1.60
2018-03-11T12:57:25.455Z,1.53
2018-03-11T12:59:28.319Z,1.70
2018-03-11T13:01:30.972Z,1.30
2018-03-11T13:03:33.644Z,1.53
2018-03-11T13:05:37.041Z,1.60
2018-03-11T13:07:39.660Z,1.40
2018-03-11T13:09:42.286Z,1.40
2018-03-11T13:11:44.928Z,1.40
2018-03-11T13:13:47.536Z,1.50
2018-03-11T13:15:50.189Z,1.50
2018-03-11T13:17:52.801Z,1.60
2018-03-11T13:20:07.479Z,1.63
2018-03-11T13:22:10.109Z,1.53
2018-03-11T13:24:12.831Z,1.40
2018-03-11T13:26:16.249Z,1.50
2018-03-11T13:28:30.754Z,1.27
2018-03-11T13:30:33.418Z,1.73
2018-03-11T13:32:48.026Z,1.30
2018-03-11T13:34:51.645Z,1.30
2018-03-11T13:36:55.017Z,1.40
2018-03-11T13:39:09.484Z,1.43
2018-03-11T13:41:12.861Z,1.50
2018-03-11T13:43:19.703Z,1.40
2018-03-11T13:45:34.436Z,1.70
2018-03-11T13:47:37.106Z,1.70
2018-03-11T13:49:39.811Z,1.43
2018-03-11T13:51:54.584Z,1.50
2018-03-11T13:53:58.247Z,1.20
2018-03-11T13:56:01.091Z,2.13
2018-03-11T13:58:15.688Z,1.13
2018-03-11T14:00:18.528Z,1.40
2018-03-11T14:02:21.921Z,1.30
2018-03-11T14:04:25.829Z,1.30
2018-03-11T14:06:29.695Z,1.40
2018-03-11T14:08:32.381Z,1.17
2018-03-11T14:10:35.907Z,1.13
2018-03-11T14:12:39.398Z,1.30
2018-03-11T14:14:44.241Z,1.40
2018-03-11T14:16:47.030Z,1.20
2018-03-11T14:18:51.259Z,1.50
2018-03-11T14:20:54.861Z,1.27
2018-03-11T14:22:57.629Z,1.43
2018-03-11T14:25:00.277Z,1.10
2018-03-11T14:27:03.995Z,1.30
2018-03-11T14:29:06.640Z,1.70
2018-03-11T14:31:10.082Z,1.10
2018-03-11T14:33:12.732Z,1.50
2018-03-11T14:35:15.502Z,1.77
2018-03-11T14:37:18.168Z,5.10
2018-03-11T14:39:21.587Z,3.67
2018-03-11T14:41:24.507Z,1.73
2018-03-11T14:43:27.220Z,1.50
2018-03-11T14:45:29.860Z,1.53
2018-03-11T14:47:32.542Z,1.30
2018-03-11T14:49:35.179Z,1.67
2018-03-11T14:51:37.832Z,1.30
2018-03-11T14:53:40.489Z,1.30
2018-03-11T14:55:43.899Z,1.40
2018-03-11T14:57:46.568Z,1.40
2018-03-11T14:59:49.188Z,1.30
2018-03-11T15:01:51.877Z,1.10
2018-03-11T15:03:54.562Z,1.40
2018-03-11T15:05:57.209Z,1.10
2018-03-11T15:07:59.863Z,1.20
2018-03-11T15:10:02.513Z,1.13
2018-03-11T15:12:05.159Z,5.70
2018-03-11T15:14:07.918Z,1.30
2018-03-11T15:16:10.581Z,1.27
2018-03-11T15:18:13.228Z,1.23
2018-03-11T15:20:15.860Z,1.30
2018-03-11T15:22:18.552Z,1.33
2018-03-11T15:24:21.988Z,1.20
2018-03-11T15:26:24.647Z,1.30
2018-03-11T15:28:27.329Z,1.47
2018-03-11T15:30:29.993Z,1.20
2018-03-11T15:32:32.650Z,1.30
2018-03-11T15:34:36.167Z,1.30
2018-03-11T15:36:38.827Z,1.50
2018-03-11T15:38:41.496Z,1.40
2018-03-11T15:40:45.335Z,1.50
2018-03-11T15:42:48.017Z,1.30
2018-03-11T15:44:50.942Z,1.60
2018-03-11T15:46:54.376Z,1.40
2018-03-11T15:48:57.252Z,1.40
2018-03-11T15:50:59.996Z,1.70
2018-03-11T15:53:03.438Z,1.43
2018-03-11T15:55:06.144Z,1.60
2018-03-11T15:57:08.789Z,1.37
2018-03-11T15:59:11.534Z,1.33
2018-03-11T16:01:14.286Z,1.50
2018-03-11T16:03:17.716Z,1.57
2018-03-11T16:05:20.387Z,1.40
2018-03-11T16:07:23.041Z,1.40
2018-03-11T16:09:26.428Z,1.50
2018-03-11T16:11:29.868Z,1.23
2018-03-11T16:13:32.604Z,1.50
2018-03-11T16:15:35.283Z,2.83
2018-03-11T16:17:41.791Z,1.70
2018-03-11T16:19:44.445Z,1.87
2018-03-11T16:21:47.121Z,1.63
2018-03-11T16:23:49.752Z,1.60
2018-03-11T16:25:52.484Z,1.90
2018-03-11T16:27:55.249Z,2.87
2018-03-11T16:29:57.982Z,2.73
2018-03-11T16:32:01.421Z,2.43
2018-03-11T16:34:04.075Z,2.33
2018-03-11T16:36:06.780Z,2.23
2018-03-11T16:38:09.514Z,2.30
2018-03-11T16:40:12.974Z,2.17
2018-03-11T16:42:15.631Z,2.00
2018-03-11T16:44:18.268Z,1.97
2018-03-11T16:46:20.982Z,1.97
2018-03-11T16:48:23.631Z,2.30
2018-03-11T16:50:26.275Z,1.90
2018-03-11T16:52:29.734Z,1.70
2018-03-11T16:54:32.533Z,1.80
2018-03-11T16:56:35.217Z,1.70
2018-03-11T16:58:37.879Z,1.80
2018-03-11T17:00:40.513Z,1.77
2018-03-11T17:02:43.216Z,1.80
2018-03-11T17:04:45.939Z,1.80
2018-03-11T17:06:49.374Z,1.80
2018-03-11T17:08:52.115Z,2.00
2018-03-11T17:10:54.771Z,1.70
2018-03-11T17:12:58.215Z,1.80
2018-03-11T17:15:00.861Z,2.07
2018-03-11T17:17:03.571Z,2.53
2018-03-11T17:19:06.241Z,2.00
2018-03-11T17:21:08.879Z,2.20
2018-03-11T17:23:11.550Z,2.00
2018-03-11T17:25:15.087Z,1.90
2018-03-11T17:27:17.769Z,2.00
2018-03-11T17:29:21.556Z,2.27
2018-03-11T17:31:24.222Z,2.30
2018-03-11T17:33:26.924Z,1.80
2018-03-11T17:35:29.554Z,2.23
2018-03-11T17:37:32.200Z,3.27
2018-03-11T17:39:34.851Z,3.90
2018-03-11T17:41:37.558Z,4.07
2018-03-11T17:43:41.048Z,3.17
2018-03-11T17:45:43.674Z,3.60
2018-03-11T17:47:46.319Z,3.30
2018-03-11T17:49:49.010Z,2.87
2018-03-11T17:51:51.683Z,2.63
2018-03-11T17:53:54.439Z,2.40
2018-03-11T17:56:06.254Z,3.00
2018-03-11T17:58:08.896Z,3.03
2018-03-11T18:00:12.359Z,2.47
2018-03-11T18:02:15.055Z,3.10
2018-03-11T18:04:18.510Z,2.70
2018-03-11T18:06:21.198Z,2.80
2018-03-11T18:08:23.909Z,3.00
2018-03-11T18:10:27.350Z,3.10
2018-03-11T18:12:30.126Z,3.10
2018-03-11T18:14:32.779Z,3.50
2018-03-11T18:16:35.435Z,3.83
2018-03-11T18:18:40.010Z,3.23
2018-03-11T18:20:42.829Z,8.20
2018-03-11T18:22:46.244Z,11.10
2018-03-11T18:24:48.909Z,7.80
2018-03-11T18:26:52.198Z,7.73
2018-03-11T18:28:54.839Z,8.93
2018-03-11T18:30:57.518Z,6.70
2018-03-11T18:33:00.269Z,7.27
2018-03-11T18:35:03.096Z,7.70
2018-03-11T18:37:06.694Z,6.33
2018-03-11T18:39:09.390Z,7.83
2018-03-11T18:41:12.194Z,6.70
2018-03-11T18:43:14.860Z,6.00
2018-03-11T18:45:17.532Z,5.33
2018-03-11T18:47:20.190Z,4.93
2018-03-11T18:49:22.827Z,5.23
2018-03-11T18:51:25.532Z,5.37
2018-03-11T18:53:28.157Z,4.83
2018-03-11T18:55:30.789Z,5.60
2018-03-11T18:57:33.436Z,5.03
2018-03-11T18:59:36.823Z,5.30
2018-03-11T19:01:39.532Z,5.90
2018-03-11T19:03:42.307Z,7.40
2018-03-11T19:05:45.074Z,6.43
2018-03-11T19:07:48.617Z,6.60
2018-03-11T19:09:51.289Z,6.80
2018-03-11T19:11:54.014Z,7.40
2018-03-11T19:13:57.441Z,6.77
2018-03-11T19:16:00.373Z,7.20
2018-03-11T19:18:03.051Z,7.50
2018-03-11T19:20:05.688Z,8.00
2018-03-11T19:22:08.340Z,8.80
2018-03-11T19:24:11.998Z,8.97
2018-03-11T19:26:14.679Z,9.17
2018-03-11T19:28:18.117Z,8.27
2018-03-11T19:30:20.851Z,8.70
2018-03-11T19:32:24.247Z,9.80
2018-03-11T19:34:27.703Z,9.53
2018-03-11T19:36:30.413Z,9.47
2018-03-11T19:38:33.863Z,9.40
2018-03-11T19:40:36.509Z,9.27
2018-03-11T19:42:40.205Z,10.53
2018-03-11T19:44:42.867Z,8.90
2018-03-11T19:46:46.293Z,9.40
2018-03-11T19:48:49.057Z,9.30
2018-03-11T19:50:51.694Z,8.80
2018-03-11T19:52:54.339Z,9.33
2018-03-11T19:54:57.006Z,9.57
2018-03-11T19:56:59.658Z,9.17
2018-03-11T19:59:02.344Z,10.23
2018-03-11T20:01:05.004Z,9.20
2018-03-11T20:03:07.816Z,8.20
2018-03-11T20:05:10.478Z,8.90
2018-03-11T20:07:13.339Z,8.57
2018-03-11T20:09:16.459Z,8.33
2018-03-11T20:11:19.103Z,7.67
2018-03-11T20:13:21.758Z,7.33
2018-03-11T20:15:24.476Z,7.20
2018-03-11T20:17:27.114Z,7.57
2018-03-11T20:19:29.871Z,6.93
2018-03-11T20:21:33.318Z,7.13
2018-03-11T20:23:36.050Z,6.87
2018-03-11T20:25:39.562Z,6.50
2018-03-11T20:27:42.265Z,7.37
2018-03-11T20:29:44.910Z,7.33
2018-03-11T20:31:47.606Z,7.17
2018-03-11T20:33:50.245Z,7.03
2018-03-11T20:35:53.700Z,7.70
2018-03-11T20:37:56.334Z,7.00
2018-03-11T20:40:00.017Z,7.10
2018-03-11T20:42:02.693Z,7.90
2018-03-11T20:44:05.398Z,7.00
2018-03-11T20:46:08.122Z,6.60
2018-03-11T20:48:11.558Z,6.77
2018-03-11T20:50:14.954Z,6.83
2018-03-11T20:52:17.650Z,6.67
2018-03-11T20:54:20.276Z,6.50
2018-03-11T20:56:22.964Z,7.07
2018-03-11T20:58:25.625Z,7.03
2018-03-11T21:00:29.099Z,6.50
2018-03-11T21:02:31.739Z,6.90
2018-03-11T21:04:34.405Z,6.53
2018-03-11T21:06:37.058Z,5.70
2018-03-11T21:08:39.712Z,5.67
2018-03-11T21:10:43.122Z,6.10
2018-03-11T21:12:45.805Z,5.20
2018-03-11T21:14:48.431Z,5.50
2018-03-11T21:16:51.134Z,5.37
2018-03-11T21:18:54.570Z,5.87
2018-03-11T21:20:57.197Z,6.30
2018-03-11T21:23:00.611Z,6.83
2018-03-11T21:25:03.262Z,6.60
2018-03-11T21:27:06.771Z,6.30
2018-03-11T21:29:09.530Z,6.10
2018-03-11T21:31:12.140Z,6.00
2018-03-11T21:33:14.896Z,6.83
2018-03-11T21:35:17.672Z,6.40
2018-03-11T21:37:20.340Z,5.93
2018-03-11T21:39:23.866Z,6.67
2018-03-11T21:41:26.531Z,6.17
2018-03-11T21:43:29.192Z,6.03
2018-03-11T21:45:32.597Z,7.10
2018-03-11T21:47:35.280Z,6.40
2018-03-11T21:49:37.980Z,5.97
2018-03-11T21:51:40.778Z,5.33
2018-03-11T21:53:43.439Z,5.90
2018-03-11T21:55:46.102Z,6.07
2018-03-11T21:57:48.763Z,5.30
2018-03-11T21:59:51.438Z,5.80
2018-03-11T22:01:54.064Z,6.33
2018-03-11T22:03:57.469Z,5.83
2018-03-11T22:06:00.903Z,6.57
2018-03-11T22:08:03.561Z,6.30
2018-03-11T22:10:06.327Z,5.93
2018-03-11T22:12:08.967Z,6.70
2018-03-11T22:14:11.626Z,6.70
2018-03-11T22:16:14.531Z,7.40
2018-03-11T22:18:17.179Z,9.10
2018-03-11T22:20:20.291Z,17.57
2018-03-11T22:22:22.891Z,12.60
2018-03-11T22:24:25.558Z,11.10
2018-03-11T22:26:28.995Z,10.10
2018-03-11T22:28:31.646Z,8.30
2018-03-11T22:30:34.321Z,8.37
2018-03-11T22:32:36.978Z,7.00
2018-03-11T22:34:40.409Z,6.67
2018-03-11T22:36:43.071Z,7.27
2018-03-11T22:38:45.708Z,8.57
2018-03-11T22:40:49.138Z,8.33
2018-03-11T22:42:51.773Z,7.40
2018-03-11T22:44:54.506Z,7.93
2018-03-11T22:46:57.166Z,8.00
2018-03-11T22:48:59.805Z,7.97
2018-03-11T22:51:03.237Z,7.97
2018-03-11T22:53:05.885Z,8.27
2018-03-11T22:55:08.523Z,8.40
2018-03-11T22:57:11.256Z,7.67
2018-03-11T22:59:13.895Z,7.77
2018-03-11T23:01:17.481Z,7.13
2018-03-11T23:03:20.153Z,7.80
2018-03-11T23:05:22.815Z,7.20
2018-03-11T23:07:25.485Z,7.63
2018-03-11T23:09:28.121Z,7.60
2018-03-11T23:11:30.798Z,8.37
2018-03-11T23:13:33.457Z,8.50
2018-03-11T23:15:36.098Z,8.93
2018-03-11T23:17:38.745Z,8.43
2018-03-11T23:19:41.377Z,9.30
2018-03-11T23:21:44.794Z,9.10
2018-03-11T23:23:47.565Z,8.83
2018-03-11T23:25:50.186Z,9.73
2018-03-11T23:27:52.843Z,8.50
2018-03-11T23:29:55.476Z,9.73
2018-03-11T23:31:58.115Z,9.33
2018-03-11T23:34:00.796Z,9.10
2018-03-11T23:36:03.427Z,11.40
2018-03-11T23:38:06.109Z,11.10
2018-03-11T23:40:08.757Z,10.03
2018-03-11T23:42:11.409Z,9.47
2018-03-11T23:44:14.831Z,10.00
2018-03-11T23:46:17.495Z,11.13
2018-03-11T23:48:20.160Z,10.77
2018-03-11T23:50:22.807Z,10.10
2018-03-11T23:52:25.439Z,10.30
2018-03-11T23:54:28.116Z,10.60
2018-03-11T23:56:30.784Z,10.73
2018-03-11T23:58:33.433Z,10.50
